createdAt,value
2022-11-20T00:01:49.450Z,6.30
2022-11-20T00:04:51.101Z,5.90
2022-11-20T00:07:52.741Z,5.90
2022-11-20T00:10:54.291Z,5.87
2022-11-20T00:13:58.138Z,4.73
2022-11-20T00:16:59.742Z,5.23
2022-11-20T00:20:01.292Z,4.90
2022-11-20T00:23:02.906Z,5.17
2022-11-20T00:26:08.997Z,5.20
2022-11-20T00:29:11.549Z,5.23
2022-11-20T00:32:13.161Z,5.00
2022-11-20T00:35:14.773Z,5.43
2022-11-20T00:38:16.364Z,5.27
2022-11-20T00:41:17.954Z,4.73
2022-11-20T00:44:19.624Z,5.43
2022-11-20T00:47:21.226Z,5.10
2022-11-20T00:50:22.818Z,4.93
2022-11-20T00:53:24.585Z,5.13
2022-11-20T00:56:26.652Z,6.00
2022-11-20T00:59:28.495Z,5.70
2022-11-20T01:02:30.107Z,6.03
2022-11-20T01:05:34.946Z,4.70
2022-11-20T01:08:36.971Z,4.83
2022-11-20T01:11:39.872Z,5.13
2022-11-20T01:14:41.452Z,4.50
2022-11-20T01:17:43.100Z,4.50
2022-11-20T01:20:44.758Z,4.40
2022-11-20T01:23:46.859Z,4.67
2022-11-20T01:26:49.471Z,4.67
2022-11-20T01:29:50.997Z,4.87
2022-11-20T01:32:52.585Z,4.60
2022-11-20T01:35:54.460Z,4.77
2022-11-20T01:38:56.955Z,4.97
2022-11-20T01:42:16.966Z,4.63
2022-11-20T01:45:37.425Z,4.07
2022-11-20T01:48:41.223Z,4.97
2022-11-20T01:51:51.182Z,5.10
2022-11-20T01:55:00.231Z,5.03
2022-11-20T01:58:02.824Z,5.53
2022-11-20T02:01:04.982Z,5.87
2022-11-20T02:04:08.359Z,5.00
2022-11-20T02:07:10.289Z,5.20
2022-11-20T02:10:12.404Z,4.87
2022-11-20T02:13:32.366Z,5.23
2022-11-20T02:16:41.473Z,4.93
2022-11-20T02:19:43.036Z,5.47
2022-11-20T02:23:04.913Z,5.37
2022-11-20T02:26:08.514Z,4.33
2022-11-20T02:29:10.388Z,9.53
2022-11-20T02:32:22.082Z,9.00
2022-11-20T02:35:23.664Z,6.20
2022-11-20T02:38:25.439Z,5.37
2022-11-20T02:41:36.935Z,5.23
2022-11-20T02:44:38.613Z,4.83
2022-11-20T02:47:40.183Z,4.70
2022-11-20T02:50:41.819Z,5.17
2022-11-20T02:53:43.383Z,4.60
2022-11-20T02:56:45.005Z,4.33
2022-11-20T02:59:46.635Z,4.30
2022-11-20T03:02:48.347Z,4.17
2022-11-20T03:05:49.946Z,4.07
2022-11-20T03:08:51.578Z,3.83
2022-11-20T03:11:53.214Z,4.33
2022-11-20T03:14:54.770Z,4.43
2022-11-20T03:17:56.695Z,3.87
2022-11-20T03:20:59.959Z,3.77
2022-11-20T03:24:01.799Z,4.23
2022-11-20T03:27:03.430Z,3.90
2022-11-20T03:30:05.862Z,3.90
2022-11-20T03:33:07.507Z,3.67
2022-11-20T03:36:10.239Z,4.20
2022-11-20T03:39:11.932Z,3.40
2022-11-20T03:42:32.088Z,3.63
2022-11-20T03:45:33.622Z,3.60
2022-11-20T03:48:35.767Z,3.87
2022-11-20T03:51:37.495Z,3.97
2022-11-20T03:54:39.147Z,4.20
2022-11-20T03:57:40.762Z,3.97
2022-11-20T04:00:42.367Z,3.00
2022-11-20T04:03:44.728Z,3.47
2022-11-20T04:06:46.360Z,3.53
2022-11-20T04:09:47.931Z,3.90
2022-11-20T04:12:49.474Z,3.40
2022-11-20T04:15:51.132Z,3.77
2022-11-20T04:18:56.715Z,3.83
2022-11-20T04:21:58.261Z,3.97
2022-11-20T04:24:59.870Z,3.17
2022-11-20T04:28:01.575Z,3.80
2022-11-20T04:31:11.348Z,3.50
2022-11-20T04:34:12.952Z,3.53
2022-11-20T04:37:14.546Z,3.80
2022-11-20T04:40:16.131Z,3.67
2022-11-20T04:43:17.747Z,3.60
2022-11-20T04:46:20.043Z,3.53
2022-11-20T04:49:21.817Z,3.80
2022-11-20T04:52:23.797Z,6.10
2022-11-20T04:55:25.344Z,3.73
2022-11-20T04:58:26.907Z,3.00
2022-11-20T05:01:28.580Z,2.97
2022-11-20T05:04:30.147Z,3.50
2022-11-20T05:07:31.751Z,2.80
2022-11-20T05:10:33.457Z,3.10
2022-11-20T05:13:35.056Z,3.07
2022-11-20T05:16:39.765Z,3.20
2022-11-20T05:19:41.383Z,2.90
2022-11-20T05:22:43.354Z,3.03
2022-11-20T05:25:44.910Z,3.40
2022-11-20T05:28:46.652Z,3.03
2022-11-20T05:31:48.409Z,3.10
2022-11-20T05:34:50.068Z,2.80
2022-11-20T05:37:51.676Z,3.50
2022-11-20T05:40:53.246Z,2.73
2022-11-20T05:43:57.256Z,2.77
2022-11-20T05:46:58.875Z,3.00
2022-11-20T05:50:00.478Z,2.83
2022-11-20T05:53:02.102Z,2.80
2022-11-20T05:56:08.113Z,2.87
2022-11-20T05:59:09.823Z,3.47
2022-11-20T06:02:11.686Z,3.23
2022-11-20T06:05:13.396Z,2.90
2022-11-20T06:08:14.986Z,3.00
2022-11-20T06:11:17.180Z,3.27
2022-11-20T06:14:18.763Z,3.13
2022-11-20T06:17:20.337Z,3.23
2022-11-20T06:20:22.448Z,2.90
2022-11-20T06:23:24.036Z,3.33
2022-11-20T06:26:26.758Z,2.77
2022-11-20T06:29:32.717Z,2.83
2022-11-20T06:32:35.586Z,2.70
2022-11-20T06:35:37.211Z,2.93
2022-11-20T06:38:39.380Z,2.80
2022-11-20T06:41:40.940Z,2.10
2022-11-20T06:44:42.631Z,2.67
2022-11-20T06:47:44.209Z,2.53
2022-11-20T06:50:45.876Z,3.07
2022-11-20T06:53:47.459Z,2.90
2022-11-20T06:56:49.449Z,3.07
2022-11-20T06:59:51.028Z,2.47
2022-11-20T07:02:52.731Z,2.30
2022-11-20T07:05:57.658Z,2.73
2022-11-20T07:08:59.248Z,2.93
2022-11-20T07:12:01.406Z,2.50
2022-11-20T07:15:03.008Z,3.60
2022-11-20T07:18:04.719Z,2.60
2022-11-20T07:21:10.772Z,2.73
2022-11-20T07:24:12.357Z,2.90
2022-11-20T07:27:14.204Z,3.03
2022-11-20T07:30:16.448Z,2.97
2022-11-20T07:33:18.100Z,3.10
2022-11-20T07:36:19.732Z,4.67
2022-11-20T07:39:21.586Z,3.80
2022-11-20T07:42:23.410Z,3.10
2022-11-20T07:45:26.411Z,2.90
2022-11-20T07:48:28.075Z,2.43
2022-11-20T07:51:30.426Z,2.30
2022-11-20T07:54:32.045Z,7.30
2022-11-20T07:57:33.654Z,5.27
2022-11-20T08:00:35.272Z,5.90
2022-11-20T08:03:38.759Z,7.03
2022-11-20T08:06:40.427Z,7.53
2022-11-20T08:09:42.071Z,6.63
2022-11-20T08:13:06.448Z,6.37
2022-11-20T08:16:08.069Z,7.37
2022-11-20T08:19:09.807Z,6.47
2022-11-20T08:22:11.424Z,9.37
2022-11-20T08:25:13.075Z,9.60
2022-11-20T08:28:20.698Z,8.07
2022-11-20T08:31:23.924Z,7.13
2022-11-20T08:34:25.611Z,8.43
2022-11-20T08:37:27.199Z,7.30
2022-11-20T08:40:28.785Z,8.13
2022-11-20T08:43:30.486Z,8.97
2022-11-20T08:46:34.281Z,8.27
2022-11-20T08:49:35.836Z,11.10
2022-11-20T08:52:39.782Z,8.17
2022-11-20T08:55:41.679Z,7.77
2022-11-20T08:59:15.443Z,8.43
2022-11-20T09:02:04.871Z,8.23
2022-11-20T09:05:07.220Z,8.60
2022-11-20T09:08:08.837Z,8.50
2022-11-20T09:11:10.762Z,8.77
2022-11-20T09:14:12.304Z,9.00
2022-11-20T09:17:15.896Z,10.73
2022-11-20T09:20:17.496Z,10.00
2022-11-20T09:23:19.292Z,10.67
2022-11-20T09:26:20.910Z,10.33
2022-11-20T09:29:23.148Z,10.83
2022-11-20T09:32:25.134Z,9.77
2022-11-20T09:35:26.758Z,9.57
2022-11-20T09:38:28.368Z,11.13
2022-11-20T09:41:40.104Z,10.30
2022-11-20T09:44:47.759Z,9.57
2022-11-20T09:47:52.120Z,10.10
2022-11-20T09:51:13.990Z,10.30
2022-11-20T09:54:19.043Z,9.73
2022-11-20T09:57:22.857Z,9.87
2022-11-20T10:00:24.564Z,9.97
2022-11-20T10:03:35.764Z,10.37
2022-11-20T10:06:44.761Z,9.27
2022-11-20T10:09:51.905Z,9.77
2022-11-20T10:13:01.749Z,10.27
2022-11-20T10:16:22.020Z,10.33
2022-11-20T10:19:32.565Z,11.43
2022-11-20T10:22:36.880Z,9.67
2022-11-20T10:25:47.837Z,10.83
2022-11-20T10:28:57.066Z,10.13
2022-11-20T10:32:04.100Z,11.07
2022-11-20T10:35:05.777Z,10.40
2022-11-20T10:38:12.755Z,10.73
2022-11-20T10:41:26.979Z,11.53
2022-11-20T10:44:51.118Z,11.57
2022-11-20T10:47:57.633Z,11.43
2022-11-20T10:51:15.086Z,12.13
2022-11-20T10:54:27.903Z,12.50
2022-11-20T10:57:47.735Z,14.97
2022-11-20T11:00:49.394Z,12.10
2022-11-20T11:03:52.823Z,11.87
2022-11-20T11:06:56.480Z,11.87
2022-11-20T11:09:58.362Z,11.83
2022-11-20T11:12:59.942Z,11.30
2022-11-20T11:16:01.672Z,12.07
2022-11-20T11:19:06.952Z,11.97
2022-11-20T11:22:11.300Z,12.97
2022-11-20T11:25:22.012Z,11.90
2022-11-20T11:28:25.923Z,12.80
2022-11-20T11:31:29.513Z,12.50
2022-11-20T11:34:32.897Z,12.33
2022-11-20T11:37:36.984Z,12.20
2022-11-20T11:40:39.289Z,11.97
2022-11-20T11:43:59.762Z,11.43
2022-11-20T11:47:01.531Z,13.03
2022-11-20T11:50:09.220Z,12.50
2022-11-20T11:53:14.239Z,12.23
2022-11-20T11:56:15.936Z,12.23
2022-11-20T11:59:23.773Z,12.50
2022-11-20T12:02:32.437Z,12.93
2022-11-20T12:05:37.176Z,11.97
2022-11-20T12:08:45.337Z,10.60
2022-11-20T12:12:11.178Z,10.17
2022-11-20T12:15:14.006Z,12.20
2022-11-20T12:18:16.928Z,12.27
2022-11-20T12:21:21.399Z,11.97
2022-11-20T12:24:40.295Z,12.63
2022-11-20T12:28:00.452Z,13.73
2022-11-20T12:31:12.244Z,12.00
2022-11-20T12:34:13.765Z,11.13
2022-11-20T12:37:15.325Z,12.30
2022-11-20T12:40:25.904Z,12.30
2022-11-20T12:43:48.276Z,14.33
2022-11-20T12:46:54.848Z,13.00
2022-11-20T12:49:59.147Z,14.03
2022-11-20T12:53:03.442Z,14.93
2022-11-20T12:56:29.456Z,13.20
2022-11-20T12:59:42.495Z,14.00
2022-11-20T13:02:56.488Z,14.17
2022-11-20T13:06:24.154Z,15.30
2022-11-20T13:09:26.491Z,13.33
2022-11-20T13:12:36.997Z,14.57
2022-11-20T13:15:46.696Z,13.77
2022-11-20T13:18:48.342Z,13.93
2022-11-20T13:21:51.430Z,13.23
2022-11-20T13:24:53.695Z,13.40
2022-11-20T13:27:56.264Z,13.57
2022-11-20T13:30:59.243Z,14.00
2022-11-20T13:34:02.676Z,14.07
2022-11-20T13:37:07.010Z,13.47
2022-11-20T13:40:08.604Z,14.53
2022-11-20T13:43:24.153Z,14.13
2022-11-20T13:46:36.085Z,15.93
2022-11-20T13:49:45.826Z,14.70
2022-11-20T13:53:04.076Z,16.90
2022-11-20T13:56:05.716Z,16.83
2022-11-20T13:59:19.197Z,18.97
2022-11-20T14:02:21.938Z,21.60
2022-11-20T14:05:24.258Z,20.33
2022-11-20T14:08:31.632Z,21.57
2022-11-20T14:11:34.443Z,22.60
2022-11-20T14:14:37.420Z,23.20
2022-11-20T14:17:39.290Z,22.87
2022-11-20T14:20:42.150Z,17.87
2022-11-20T14:23:43.750Z,18.70
2022-11-20T14:26:46.552Z,15.93
2022-11-20T14:29:49.782Z,15.30
2022-11-20T14:32:52.729Z,15.13
2022-11-20T14:35:58.267Z,14.67
2022-11-20T14:38:59.959Z,15.10
2022-11-20T14:42:01.647Z,14.47
2022-11-20T14:45:03.802Z,15.10
2022-11-20T14:48:05.816Z,16.47
2022-11-20T14:51:09.892Z,15.20
2022-11-20T14:54:11.967Z,18.60
2022-11-20T14:57:32.284Z,18.93
2022-11-20T15:00:34.857Z,16.67
2022-11-20T15:03:37.641Z,15.00
2022-11-20T15:06:50.168Z,19.67
2022-11-20T15:10:08.543Z,18.57
2022-11-20T15:13:14.463Z,14.33
2022-11-20T15:16:19.938Z,15.87
2022-11-20T15:19:25.566Z,20.43
2022-11-20T15:22:27.619Z,22.60
2022-11-20T15:25:29.352Z,27.73
2022-11-20T15:28:38.053Z,23.40
2022-11-20T15:31:42.485Z,23.90
2022-11-20T15:34:44.149Z,25.77
2022-11-20T15:37:45.849Z,24.93
2022-11-20T15:40:47.466Z,19.60
2022-11-20T15:43:49.210Z,19.37
2022-11-20T15:46:50.923Z,18.87
2022-11-20T15:49:52.575Z,17.10
2022-11-20T15:52:54.143Z,14.53
2022-11-20T15:55:55.697Z,14.43
2022-11-20T15:58:57.334Z,17.27
2022-11-20T16:01:58.932Z,19.07
2022-11-20T16:05:00.516Z,15.47
2022-11-20T16:08:04.972Z,13.67
2022-11-20T16:11:19.234Z,30.00
2022-11-20T16:14:39.516Z,23.33
2022-11-20T16:17:43.993Z,16.10
2022-11-20T16:20:49.934Z,19.10
2022-11-20T16:23:51.512Z,24.90
2022-11-20T16:26:54.132Z,17.87
2022-11-20T16:29:55.742Z,33.33
2022-11-20T16:32:57.303Z,23.13
2022-11-20T16:35:58.880Z,25.67
2022-11-20T16:39:01.546Z,23.30
2022-11-20T16:42:06.315Z,24.53
2022-11-20T16:45:08.243Z,23.37
2022-11-20T16:48:15.125Z,23.83
2022-11-20T16:51:16.755Z,21.53
2022-11-20T16:54:21.200Z,24.73
2022-11-20T16:57:23.551Z,24.50
2022-11-20T17:00:25.203Z,24.60
2022-11-20T17:03:26.866Z,25.63
2022-11-20T17:06:29.991Z,23.83
2022-11-20T17:09:31.604Z,26.50
2022-11-20T17:12:33.169Z,24.13
2022-11-20T17:15:34.746Z,34.70
2022-11-20T17:18:36.478Z,59.03
2022-11-20T17:21:38.260Z,51.97
2022-11-20T17:24:39.965Z,25.50
2022-11-20T17:27:41.593Z,28.17
2022-11-20T17:30:43.197Z,24.93
2022-11-20T17:33:46.171Z,48.97
2022-11-20T17:36:47.853Z,30.93
2022-11-20T17:39:49.463Z,30.10
2022-11-20T17:42:51.019Z,42.07
2022-11-20T17:45:52.624Z,34.03
2022-11-20T17:48:55.131Z,33.53
2022-11-20T17:51:56.788Z,34.93
2022-11-20T17:54:58.459Z,36.07
2022-11-20T17:58:02.893Z,45.80
2022-11-20T18:01:05.610Z,33.23
2022-11-20T18:04:07.435Z,26.60
2022-11-20T18:07:09.128Z,21.47
2022-11-20T18:10:11.043Z,25.63
2022-11-20T18:13:12.682Z,25.17
2022-11-20T18:16:14.665Z,21.63
2022-11-20T18:19:18.676Z,24.03
2022-11-20T18:22:20.596Z,21.97
2022-11-20T18:25:22.291Z,28.67
2022-11-20T18:28:29.785Z,18.40
2022-11-20T18:31:31.680Z,15.60
2022-11-20T18:34:33.513Z,15.90
2022-11-20T18:37:35.231Z,13.23
2022-11-20T18:40:37.339Z,12.40
2022-11-20T18:43:58.900Z,10.00
2022-11-20T18:47:01.479Z,11.17
2022-11-20T18:50:04.141Z,8.57
2022-11-20T18:53:05.776Z,9.87
2022-11-20T18:56:10.454Z,9.47
2022-11-20T18:59:12.795Z,10.60
2022-11-20T19:02:15.630Z,13.67
2022-11-20T19:05:17.476Z,14.60
2022-11-20T19:08:21.400Z,29.40
2022-11-20T19:11:28.888Z,14.60
2022-11-20T19:14:30.606Z,25.93
2022-11-20T19:17:33.294Z,15.07
2022-11-20T19:20:35.117Z,14.80
2022-11-20T19:23:37.722Z,15.57
2022-11-20T19:26:43.015Z,19.73
2022-11-20T19:29:49.481Z,20.50
2022-11-20T19:32:53.764Z,16.80
2022-11-20T19:35:55.949Z,14.60
2022-11-20T19:38:57.956Z,15.53
2022-11-20T19:41:59.683Z,14.93
2022-11-20T19:45:01.606Z,14.57
2022-11-20T19:48:08.120Z,13.90
2022-11-20T19:51:13.175Z,15.70
2022-11-20T19:54:18.020Z,19.60
2022-11-20T19:57:19.660Z,25.87
2022-11-20T20:00:29.694Z,21.80
2022-11-20T20:03:34.400Z,15.20
2022-11-20T20:06:38.819Z,19.40
2022-11-20T20:09:41.749Z,23.90
2022-11-20T20:12:43.411Z,18.87
2022-11-20T20:15:45.031Z,20.47
2022-11-20T20:18:46.807Z,19.83
2022-11-20T20:21:49.749Z,15.67
2022-11-20T20:24:52.244Z,17.20
2022-11-20T20:27:54.030Z,22.83
2022-11-20T20:30:55.812Z,28.17
2022-11-20T20:33:57.682Z,25.97
2022-11-20T20:36:59.276Z,22.03
2022-11-20T20:40:00.899Z,18.50
2022-11-20T20:43:02.478Z,17.40
2022-11-20T20:46:04.197Z,19.20
2022-11-20T20:49:05.975Z,21.57
2022-11-20T20:52:08.347Z,26.03
2022-11-20T20:55:10.583Z,21.30
2022-11-20T20:58:12.283Z,18.97
2022-11-20T21:01:14.934Z,18.17
2022-11-20T21:04:16.663Z,14.90
2022-11-20T21:07:18.410Z,10.10
2022-11-20T21:10:23.723Z,12.70
2022-11-20T21:13:25.696Z,10.37
2022-11-20T21:16:27.560Z,10.80
2022-11-20T21:19:29.282Z,13.23
2022-11-20T21:22:36.232Z,5.67
2022-11-20T21:25:38.463Z,6.10
2022-11-20T21:28:40.145Z,6.10
2022-11-20T21:31:41.695Z,5.90
2022-11-20T21:34:43.250Z,6.27
2022-11-20T21:37:44.828Z,6.10
2022-11-20T21:40:46.523Z,5.70
2022-11-20T21:44:09.165Z,5.40
2022-11-20T21:47:09.817Z,6.43
2022-11-20T21:50:11.370Z,5.50
2022-11-20T21:53:13.012Z,6.93
2022-11-20T21:56:51.550Z,5.63
2022-11-20T22:00:06.550Z,5.47
2022-11-20T22:03:11.770Z,6.63
2022-11-20T22:06:13.304Z,6.03
2022-11-20T22:09:14.929Z,6.00
2022-11-20T22:12:16.495Z,5.37
2022-11-20T22:15:39.002Z,11.90
2022-11-20T22:18:46.604Z,6.73
2022-11-20T22:21:49.397Z,7.10
2022-11-20T22:24:50.975Z,7.50
2022-11-20T22:27:52.536Z,7.33
2022-11-20T22:30:56.935Z,8.77
2022-11-20T22:33:59.062Z,10.40
2022-11-20T22:37:00.634Z,9.07
2022-11-20T22:40:02.254Z,7.43
2022-11-20T22:43:03.837Z,6.63
2022-11-20T22:46:08.229Z,6.00
2022-11-20T22:49:09.875Z,6.10
2022-11-20T22:52:11.474Z,6.00
2022-11-20T22:55:16.213Z,7.83
2022-11-20T22:58:18.143Z,6.43
2022-11-20T23:01:21.202Z,7.70
2022-11-20T23:04:23.011Z,6.93
2022-11-20T23:07:24.793Z,6.97
2022-11-20T23:10:26.408Z,6.87
2022-11-20T23:13:28.310Z,7.23
2022-11-20T23:16:31.454Z,5.73
2022-11-20T23:19:33.072Z,7.03
2022-11-20T23:22:34.685Z,7.10
2022-11-20T23:25:36.329Z,6.60
2022-11-20T23:28:38.418Z,6.80
2022-11-20T23:31:40.003Z,6.60
2022-11-20T23:34:41.641Z,7.43
2022-11-20T23:37:43.222Z,6.93
2022-11-20T23:40:48.435Z,7.57
2022-11-20T23:43:50.007Z,7.07
2022-11-20T23:46:51.700Z,11.33
2022-11-20T23:49:53.327Z,13.20
2022-11-20T23:52:54.956Z,12.80
2022-11-20T23:55:57.560Z,13.23
2022-11-20T23:58:59.246Z,11.73
